Time;durP1;ratioP1;P1;durP2;ratioP2;P2;SDS_P1;SDS_P2;PMS_P1;PMS_P2;Temp;Humidity;BMP_temperature;BMP_pressure;BME280_temperature;BME280_humidity;BME280_pressure;Samples;Min_cycle;Max_cycle;Signal;HPM_P1;HPM_P2
2021/03/25 00:00:24;;;;;;;10.90;6.65;;;;;;;2.62;92.98;96244.09;1034474;28;20050;-70
2021/03/25 00:00:56;;;;;;;12.48;6.90;;;;;;;2.68;92.99;96249.25;1039098;28;20037;-69
2021/03/25 00:01:29;;;;;;;11.38;6.84;;;;;;;2.67;92.68;96246.84;1037421;28;20476;-70
2021/03/25 00:01:59;;;;;;;10.60;5.96;;;;;;;2.68;92.21;96245.84;1034989;28;20053;-70
2021/03/25 00:02:29;;;;;;;15.23;6.68;;;;;;;2.71;92.27;96250.63;1035170;28;20014;-70
2021/03/25 00:03:01;;;;;;;10.50;6.63;;;;;;;2.68;92.34;96246.66;1033311;28;20049;-68
2021/03/25 00:03:31;;;;;;;12.34;6.80;;;;;;;2.71;92.09;96245.47;1035002;28;20045;-69
2021/03/25 00:04:02;;;;;;;7.18;5.60;;;;;;;2.69;91.96;96248.25;1030914;28;20081;-69
2021/03/25 00:04:32;;;;;;;10.00;6.15;;;;;;;2.68;91.93;96245.84;1043367;28;20025;-69
2021/03/25 00:05:07;;;;;;;10.95;6.65;;;;;;;2.68;91.64;96251.03;1030422;28;20570;-71
2021/03/25 00:05:37;;;;;;;11.86;6.52;;;;;;;2.68;91.99;96245.84;1039124;28;20026;-69
2021/03/25 00:06:08;;;;;;;14.35;6.40;;;;;;;2.68;92.07;96251.03;1026889;28;20023;-70
2021/03/25 00:06:43;;;;;;;12.32;5.95;;;;;;;2.68;92.11;96245.84;1034887;28;20597;-70
2021/03/25 00:07:13;;;;;;;11.00;6.48;;;;;;;2.67;91.65;96244.28;1034970;28;20018;-70
2021/03/25 00:07:44;;;;;;;10.57;6.30;;;;;;;2.64;92.09;96245.47;1030992;28;20524;-68
2021/03/25 00:08:16;;;;;;;10.20;6.22;;;;;;;2.62;91.59;96247.47;1029094;28;20078;-71
2021/03/25 00:08:46;;;;;;;10.62;5.78;;;;;;;2.57;92.07;96242.88;1031163;28;20041;-70
2021/03/25 00:09:28;;;;;;;9.70;6.20;;;;;;;2.59;92.61;96253.84;1030846;28;20021;-69
2021/03/25 00:09:58;;;;;;;9.12;6.14;;;;;;;2.58;92.36;96252.25;1036485;28;20025;-69
2021/03/25 00:10:30;;;;;;;10.80;6.03;;;;;;;2.62;92.25;96246.69;1039003;28;20017;-69
2021/03/25 00:11:01;;;;;;;9.72;6.32;;;;;;;2.59;91.91;96246.06;1034929;28;20021;-68
2021/03/25 00:11:32;;;;;;;8.98;5.28;;;;;;;2.61;91.80;96248.44;1031894;28;20369;-69
2021/03/25 00:12:03;;;;;;;12.13;6.47;;;;;;;2.45;91.81;96231.53;1034908;28;20045;-71
2021/03/25 00:12:33;;;;;;;10.16;5.80;;;;;;;2.58;91.97;96249.66;1035043;28;20022;-68
2021/03/25 00:13:04;;;;;;;11.05;5.95;;;;;;;2.58;92.20;96254.84;1034707;28;20026;-69
2021/03/25 00:13:35;;;;;;;9.75;5.72;;;;;;;2.60;91.94;96249.44;1035012;28;20009;-69
2021/03/25 00:14:05;;;;;;;10.73;6.35;;;;;;;2.56;91.93;96235.31;1030786;28;20046;-69
2021/03/25 00:14:36;;;;;;;9.95;5.40;;;;;;;2.57;91.92;96245.47;1030897;28;20037;-70
2021/03/25 00:15:07;;;;;;;10.05;5.88;;;;;;;2.59;92.22;96246.06;1034532;28;20029;-71
2021/03/25 00:15:37;;;;;;;9.60;5.68;;;;;;;2.59;91.79;96245.28;1035003;28;20072;-68
2021/03/25 00:16:11;;;;;;;12.40;6.13;;;;;;;2.54;91.99;96235.50;1030766;28;20019;-69
2021/03/25 00:16:41;;;;;;;9.56;6.10;;;;;;;2.55;92.08;96242.28;1032392;28;20061;-71
2021/03/25 00:17:13;;;;;;;8.82;5.22;;;;;;;2.62;91.86;96237.09;1034896;28;20442;-71
2021/03/25 00:17:44;;;;;;;11.04;5.88;;;;;;;2.66;91.66;96238.28;1035072;28;20458;-69
2021/03/25 00:18:14;;;;;;;11.60;6.00;;;;;;;2.56;91.57;96227.53;1034610;28;20275;-69
2021/03/25 00:18:45;;;;;;;12.15;6.43;;;;;;;2.60;92.03;96239.88;1026880;28;20152;-71
2021/03/25 00:19:15;;;;;;;14.48;6.10;;;;;;;2.58;92.30;96241.06;1030931;28;20034;-69
2021/03/25 00:19:46;;;;;;;10.75;5.38;;;;;;;2.56;92.38;96238.69;1031014;28;20038;-69
2021/03/25 00:20:16;;;;;;;10.00;5.82;;;;;;;2.56;92.03;96243.88;1037345;28;20060;-70
2021/03/25 00:20:47;;;;;;;11.52;6.03;;;;;;;2.55;92.21;96242.28;1038900;28;20045;-68
2021/03/25 00:21:18;;;;;;;11.48;5.55;;;;;;;2.52;92.66;96237.50;1030805;28;20422;-69
2021/03/25 00:21:49;;;;;;;11.50;5.43;;;;;;;2.50;92.54;96242.06;1034654;28;20440;-70
2021/03/25 00:22:19;;;;;;;9.85;5.78;;;;;;;2.48;92.77;96246.66;1035000;28;20080;-71
2021/03/25 00:22:50;;;;;;;8.85;5.90;;;;;;;2.48;93.04;96243.25;1038887;28;20053;-71
2021/03/25 00:23:20;;;;;;;9.18;5.70;;;;;;;2.38;93.47;96232.50;1038478;28;20116;-69
2021/03/25 00:23:51;;;;;;;9.07;5.57;;;;;;;2.43;93.45;96250.84;1034805;28;20117;-70
2021/03/25 00:24:21;;;;;;;9.68;5.22;;;;;;;2.41;93.40;96251.03;1035053;28;20097;-70
2021/03/25 00:24:52;;;;;;;9.90;5.15;;;;;;;2.43;93.50;96241.28;1027131;28;20173;-69
2021/03/25 00:25:30;;;;;;;9.55;5.53;;;;;;;2.48;92.97;96246.66;1034372;28;20061;-71
2021/03/25 00:26:01;;;;;;;9.10;5.50;;;;;;;2.53;93.14;96248.66;1035109;28;20587;-70
2021/03/25 00:26:31;;;;;;;9.38;5.78;;;;;;;2.47;93.03;96246.84;1035043;28;20045;-70
2021/03/25 00:27:04;;;;;;;11.35;6.00;;;;;;;2.47;93.34;96244.25;1030376;28;20029;-70
2021/03/25 00:27:35;;;;;;;9.58;5.90;;;;;;;2.46;93.50;96245.28;1026909;28;20058;-70
2021/03/25 00:28:06;;;;;;;10.30;5.45;;;;;;;2.44;93.24;96244.66;1034975;28;20578;-71
2021/03/25 00:28:36;;;;;;;10.38;5.64;;;;;;;2.44;93.65;96247.25;1036677;28;20027;-69
2021/03/25 00:29:08;;;;;;;12.02;5.40;;;;;;;2.33;93.63;96243.47;1030931;28;20515;-70
2021/03/25 00:29:39;;;;;;;9.40;5.54;;;;;;;2.34;94.27;96239.88;1030976;28;20109;-68
2021/03/25 00:30:10;;;;;;;9.57;5.38;;;;;;;2.31;94.44;96245.44;1030885;28;20034;-70
2021/03/25 00:30:41;;;;;;;7.26;4.90;;;;;;;2.29;94.37;96242.28;1027821;28;20065;-70
2021/03/25 00:31:12;;;;;;;8.65;5.30;;;;;;;2.27;94.23;96249.44;1038822;28;20041;-71
2021/03/25 00:31:43;;;;;;;11.27;5.13;;;;;;;2.20;94.05;96233.09;1034986;28;20177;-69
2021/03/25 00:32:13;;;;;;;11.20;5.70;;;;;;;2.23;94.14;96248.22;1029887;28;20058;-70
2021/03/25 00:32:44;;;;;;;10.60;5.65;;;;;;;2.20;94.70;96246.81;1039051;28;20025;-70
2021/03/25 00:33:17;;;;;;;10.63;5.18;;;;;;;2.20;94.89;96248.63;1039009;28;20053;-69
2021/03/25 00:33:48;;;;;;;11.06;5.78;;;;;;;2.15;95.53;96256.16;1034823;28;20104;-68
2021/03/25 00:34:18;;;;;;;7.45;4.97;;;;;;;2.18;95.33;96245.41;1039288;28;20090;-70
2021/03/25 00:34:49;;;;;;;10.93;5.22;;;;;;;2.20;95.02;96238.25;1043235;28;20410;-70
2021/03/25 00:35:19;;;;;;;10.68;5.30;;;;;;;2.23;94.55;96243.84;1036106;28;20499;-69
2021/03/25 00:35:50;;;;;;;10.95;5.45;;;;;;;2.20;94.64;96239.06;1034829;28;20018;-70
2021/03/25 00:36:21;;;;;;;10.35;5.40;;;;;;;2.17;95.30;96238.66;1034726;28;20022;-69
2021/03/25 00:36:51;;;;;;;10.95;5.57;;;;;;;2.12;95.21;96237.47;1031041;28;20648;-70
2021/03/25 00:37:22;;;;;;;10.07;5.82;;;;;;;2.10;95.83;96239.44;1032937;28;20308;-69
2021/03/25 00:37:52;;;;;;;9.10;5.65;;;;;;;2.07;95.79;96245.00;1030884;28;20553;-69
2021/03/25 00:38:23;;;;;;;7.47;4.90;;;;;;;2.07;95.97;96241.63;1027844;28;20073;-70
2021/03/25 00:38:54;;;;;;;12.65;5.57;;;;;;;2.03;95.93;96235.25;1034866;28;20030;-69
2021/03/25 00:39:24;;;;;;;7.46;5.10;;;;;;;2.01;96.31;96235.47;1034612;28;20045;-68
2021/03/25 00:39:55;;;;;;;6.75;4.85;;;;;;;2.00;96.33;96244.19;1038477;28;20056;-69
2021/03/25 00:40:25;;;;;;;9.27;5.07;;;;;;;2.00;96.37;96244.19;1034795;28;20026;-71
2021/03/25 00:40:56;;;;;;;8.98;5.47;;;;;;;2.04;95.87;96242.00;1034665;28;20033;-70
2021/03/25 00:41:27;;;;;;;10.70;5.53;;;;;;;2.02;96.12;96238.84;1030576;28;20037;-70
2021/03/25 00:41:57;;;;;;;9.57;5.25;;;;;;;2.03;95.70;96237.84;1034842;28;20463;-69
2021/03/25 00:42:28;;;;;;;8.85;5.55;;;;;;;2.00;95.81;96238.22;1030717;28;20379;-70
2021/03/25 00:42:59;;;;;;;6.53;4.72;;;;;;;2.03;95.93;96241.22;1026853;28;20023;-71
2021/03/25 00:43:29;;;;;;;8.84;5.24;;;;;;;2.05;95.79;96241.84;1030596;28;20495;-71
2021/03/25 00:44:01;;;;;;;10.20;5.00;;;;;;;1.92;95.60;96226.28;1034935;28;20044;-70
2021/03/25 00:44:31;;;;;;;8.54;4.98;;;;;;;2.03;96.04;96241.22;1031477;28;20033;-71
2021/03/25 00:45:03;;;;;;;8.30;5.00;;;;;;;2.04;95.65;96240.22;1030838;28;20046;-70
2021/03/25 00:45:36;;;;;;;8.96;5.08;;;;;;;2.01;95.62;96226.88;1026626;28;20019;-69
2021/03/25 00:46:07;;;;;;;7.58;4.98;;;;;;;2.07;95.42;96244.22;1028645;28;20403;-69
2021/03/25 00:46:38;;;;;;;8.43;5.50;;;;;;;2.08;94.98;96241.44;1030970;28;20109;-70
2021/03/25 00:47:09;;;;;;;10.32;5.70;;;;;;;2.06;95.13;96243.41;1038894;28;20056;-70
2021/03/25 00:47:39;;;;;;;8.55;5.40;;;;;;;2.06;95.47;96232.28;1030265;28;20365;-71
2021/03/25 00:48:10;;;;;;;10.48;5.00;;;;;;;2.03;95.24;96233.47;1034868;28;20041;-69
2021/03/25 00:48:41;;;;;;;11.45;5.45;;;;;;;2.00;95.64;96236.44;1026821;28;20117;-70
2021/03/25 00:49:11;;;;;;;11.10;5.45;;;;;;;2.00;95.88;96235.63;1026851;28;20026;-69
2021/03/25 00:49:42;;;;;;;9.45;5.28;;;;;;;2.03;95.92;96246.41;1030074;28;20023;-70
2021/03/25 00:50:18;;;;;;;7.45;5.00;;;;;;;2.07;95.53;96239.84;1034129;28;20102;-68
2021/03/25 00:50:58;;;;;;;8.28;5.46;;;;;;;2.06;95.46;96240.03;1039017;28;20021;-68
2021/03/25 00:51:28;;;;;;;9.12;5.12;;;;;;;2.04;95.05;96235.03;1034726;28;20030;-68
2021/03/25 00:51:59;;;;;;;8.32;5.43;;;;;;;2.03;95.05;96236.03;1026717;28;20026;-68
2021/03/25 00:52:30;;;;;;;8.07;4.75;;;;;;;2.06;94.70;96227.88;1030788;28;20316;-70
2021/03/25 00:53:01;;;;;;;9.48;4.43;;;;;;;2.13;94.48;96240.84;1029182;28;20058;-69
2021/03/25 00:53:34;;;;;;;7.03;4.70;;;;;;;2.07;94.83;96234.66;1034844;28;20083;-69
2021/03/25 00:54:05;;;;;;;7.26;4.62;;;;;;;2.09;94.71;96237.06;1034783;28;20399;-69
2021/03/25 00:54:35;;;;;;;10.57;4.40;;;;;;;2.09;95.16;96237.84;1030497;28;20094;-68
2021/03/25 00:55:06;;;;;;;7.38;4.63;;;;;;;2.09;94.91;96237.06;1030927;28;20057;-70
2021/03/25 00:55:37;;;;;;;7.12;5.00;;;;;;;2.08;94.72;96231.09;1034840;28;20061;-69
2021/03/25 00:56:07;;;;;;;8.00;4.05;;;;;;;2.09;94.52;96237.06;1034167;28;20163;-70
2021/03/25 00:56:38;;;;;;;9.77;4.95;;;;;;;2.07;94.55;96234.66;1038848;28;20100;-69
2021/03/25 00:57:08;;;;;;;11.75;5.63;;;;;;;2.07;94.47;96234.66;1026747;28;20094;-70
2021/03/25 00:57:39;;;;;;;8.90;4.63;;;;;;;2.10;94.43;96234.25;1034789;28;20030;-69
2021/03/25 00:58:09;;;;;;;7.82;4.68;;;;;;;2.11;94.32;96230.69;1037782;28;20095;-69
2021/03/25 00:58:40;;;;;;;9.02;5.10;;;;;;;2.12;94.25;96240.06;1030793;28;20093;-70
2021/03/25 00:59:10;;;;;;;6.63;4.40;;;;;;;2.09;94.21;96234.47;1030859;28;20069;-71
2021/03/25 00:59:41;;;;;;;7.80;5.13;;;;;;;2.08;94.37;96233.69;1030627;28;20028;-70
2021/03/25 01:00:17;;;;;;;8.95;4.40;;;;;;;2.12;94.19;96228.91;1026135;28;20558;-69
2021/03/25 01:00:48;;;;;;;5.56;3.92;;;;;;;2.09;94.19;96227.50;1034898;28;20022;-68
2021/03/25 01:01:19;;;;;;;6.93;4.22;;;;;;;2.07;94.23;96223.50;1034618;28;20021;-70
2021/03/25 01:01:49;;;;;;;7.28;4.47;;;;;;;2.06;94.24;96232.28;1034900;28;20029;-70
2021/03/25 01:02:20;;;;;;;8.13;4.38;;;;;;;2.08;94.44;96233.69;1026688;28;20061;-69
2021/03/25 01:02:50;;;;;;;7.30;4.03;;;;;;;2.06;94.30;96233.06;1026775;28;20030;-70
2021/03/25 01:03:23;;;;;;;5.55;4.20;;;;;;;2.04;94.71;96231.66;1034458;28;20355;-69
2021/03/25 01:03:54;;;;;;;6.94;4.02;;;;;;;2.03;94.60;96232.66;1034791;28;20053;-69
2021/03/25 01:04:24;;;;;;;6.18;3.97;;;;;;;2.02;94.68;96229.28;1030673;28;20034;-69
2021/03/25 01:04:55;;;;;;;6.53;4.05;;;;;;;2.07;94.73;96228.69;1029161;28;20492;-70
2021/03/25 01:05:27;;;;;;;6.43;4.60;;;;;;;2.07;94.38;96232.06;1038996;28;20025;-70
2021/03/25 01:05:58;;;;;;;6.52;3.70;;;;;;;2.02;94.14;96220.72;1026822;28;20079;-70
2021/03/25 01:06:29;;;;;;;9.38;4.80;;;;;;;2.06;94.30;96227.88;1028218;28;20067;-70
2021/03/25 01:06:59;;;;;;;5.45;3.92;;;;;;;2.03;94.35;96223.09;1026901;28;20571;-71
2021/03/25 01:07:30;;;;;;;6.90;4.40;;;;;;;2.08;94.44;96231.09;1030850;28;20069;-70
2021/03/25 01:08:00;;;;;;;11.38;4.70;;;;;;;2.08;94.28;96225.13;1034667;28;20140;-71
2021/03/25 01:08:31;;;;;;;7.18;4.10;;;;;;;1.99;94.11;96219.31;1038763;28;20025;-69
2021/03/25 01:09:20;;;;;;;7.00;4.50;;;;;;;2.06;94.35;96227.88;1038923;28;20025;-70
2021/03/25 01:09:51;;;;;;;7.06;4.22;;;;;;;1.92;94.29;96215.94;1038581;28;20036;-68
2021/03/25 01:10:27;;;;;;;5.68;3.90;;;;;;;1.99;94.44;96221.91;1038251;28;20083;-70
2021/03/25 01:11:23;;;;;;;5.54;4.12;;;;;;;1.99;94.90;96232.25;1030783;28;20026;-70
2021/03/25 01:11:54;;;;;;;6.28;4.38;;;;;;;1.97;94.80;96231.66;1038883;28;20020;-70
2021/03/25 01:12:25;;;;;;;6.62;4.04;;;;;;;1.97;95.20;96229.06;1030679;28;20129;-70
2021/03/25 01:12:57;;;;;;;5.53;3.80;;;;;;;1.95;94.84;96230.28;1030939;28;20084;-71
2021/03/25 01:13:42;;;;;;;7.94;4.12;;;;;;;1.91;95.13;96224.66;1033534;28;20386;-69
2021/03/25 01:14:12;;;;;;;5.88;4.06;;;;;;;1.87;95.45;96229.44;1035022;28;20021;-69
2021/03/25 01:14:42;;;;;;;7.05;3.88;;;;;;;1.86;95.53;96221.88;1026707;28;20081;-70
2021/03/25 01:15:13;;;;;;;5.63;4.00;;;;;;;1.84;95.91;96227.22;1034274;28;20022;-70
2021/03/25 01:15:44;;;;;;;6.78;3.95;;;;;;;1.81;95.62;96216.47;1038787;28;20065;-71
2021/03/25 01:16:24;;;;;;;8.15;4.15;;;;;;;1.84;95.82;96229.03;1034875;28;20089;-70
2021/03/25 01:16:59;;;;;;;8.52;4.45;;;;;;;1.62;96.06;96197.34;1030365;28;20661;-69
2021/03/25 01:17:30;;;;;;;7.30;4.02;;;;;;;1.83;96.21;96217.88;1038854;28;20029;-69
2021/03/25 01:18:00;;;;;;;8.00;4.15;;;;;;;1.81;96.12;96225.06;1034868;28;20128;-70
2021/03/25 01:18:31;;;;;;;6.68;4.13;;;;;;;1.84;96.19;96221.25;1033282;28;20033;-69
2021/03/25 01:19:04;;;;;;;5.55;3.55;;;;;;;1.82;95.88;96223.28;1034596;28;20121;-71
2021/03/25 01:19:35;;;;;;;7.56;3.86;;;;;;;1.80;96.18;96226.03;1026767;28;20022;-69
2021/03/25 01:20:13;;;;;;;7.13;3.75;;;;;;;1.82;96.00;96225.84;1027741;28;20436;-70
2021/03/25 01:20:43;;;;;;;5.04;3.82;;;;;;;1.81;96.03;96225.06;1034762;28;20036;-70
2021/03/25 01:21:14;;;;;;;7.38;4.68;;;;;;;1.83;95.92;96233.41;1034666;28;20522;-70
2021/03/25 01:21:44;;;;;;;7.40;4.47;;;;;;;1.79;96.36;96224.44;1027672;28;20130;-69
2021/03/25 01:22:15;;;;;;;10.05;3.67;;;;;;;1.81;96.25;96225.06;1030908;28;20113;-70
2021/03/25 01:22:45;;;;;;;6.07;4.15;;;;;;;1.81;95.83;96224.25;1034827;28;20040;-70
2021/03/25 01:23:16;;;;;;;8.57;4.40;;;;;;;1.79;96.27;96223.66;1030365;28;20383;-69
2021/03/25 01:23:46;;;;;;;5.50;3.80;;;;;;;1.79;96.05;96226.25;1034791;28;20133;-69
2021/03/25 01:24:17;;;;;;;4.82;3.78;;;;;;;1.76;96.17;96221.47;1030772;28;20027;-70
2021/03/25 01:24:47;;;;;;;5.15;3.65;;;;;;;1.73;96.36;96216.66;1034856;28;20041;-70
2021/03/25 01:25:19;;;;;;;4.95;3.92;;;;;;;1.75;96.44;96227.63;1035588;28;20034;-69
2021/03/25 01:25:50;;;;;;;4.94;3.92;;;;;;;1.73;96.47;96225.22;1034742;28;20029;-68
2021/03/25 01:26:20;;;;;;;7.28;3.97;;;;;;;1.72;96.84;96228.03;1034723;28;20030;-69
2021/03/25 01:26:51;;;;;;;4.88;3.72;;;;;;;1.70;96.56;96220.44;1030529;28;20342;-69
2021/03/25 01:27:21;;;;;;;7.20;4.10;;;;;;;1.62;96.92;96218.81;1034567;28;20048;-69
2021/03/25 01:27:52;;;;;;;6.82;4.10;;;;;;;1.71;97.22;96219.47;1034813;28;20037;-69
2021/03/25 01:28:22;;;;;;;6.25;3.95;;;;;;;1.73;97.32;96219.25;1030540;28;20572;-67
2021/03/25 01:28:53;;;;;;;6.55;3.80;;;;;;;1.69;97.32;96215.47;1038920;28;20091;-69
2021/03/25 01:29:23;;;;;;;6.40;3.97;;;;;;;1.65;97.27;96223.63;1038745;28;20033;-70
2021/03/25 01:29:54;;;;;;;6.72;4.22;;;;;;;1.58;97.56;96209.88;1038411;28;20029;-68
2021/03/25 01:30:25;;;;;;;8.10;4.25;;;;;;;1.62;97.40;96226.59;1038311;28;20036;-68
2021/03/25 01:30:56;;;;;;;7.82;4.12;;;;;;;1.61;97.79;96226.75;1034803;28;20082;-71
2021/03/25 01:31:29;;;;;;;8.00;4.47;;;;;;;1.63;97.41;96217.81;1030613;28;20114;-69
2021/03/25 01:32:00;;;;;;;6.06;3.76;;;;;;;1.62;97.81;96221.41;1027737;28;20034;-68
2021/03/25 01:32:30;;;;;;;5.85;3.97;;;;;;;1.52;97.84;96208.06;1026768;28;20118;-68
2021/03/25 01:33:01;;;;;;;8.85;4.50;;;;;;;1.59;98.11;96216.63;1038886;28;20017;-69
2021/03/25 01:33:32;;;;;;;6.80;4.15;;;;;;;1.60;98.14;96223.38;1030452;28;20025;-70
2021/03/25 01:34:02;;;;;;;8.40;4.43;;;;;;;1.62;98.00;96220.63;1026366;28;20035;-69
2021/03/25 01:34:33;;;;;;;6.35;3.88;;;;;;;1.60;97.73;96220.78;1034844;28;20567;-68
2021/03/25 01:35:08;;;;;;;7.25;4.35;;;;;;;1.59;98.02;96215.84;1034852;28;20022;-71
2021/03/25 01:35:39;;;;;;;8.56;4.12;;;;;;;1.55;97.96;96218.00;1032169;28;20030;-71
2021/03/25 01:36:10;;;;;;;6.54;4.08;;;;;;;1.54;97.86;96210.44;1030702;28;20048;-69
2021/03/25 01:36:41;;;;;;;5.90;4.32;;;;;;;1.50;98.40;96212.59;1035054;28;20093;-70
2021/03/25 01:37:11;;;;;;;5.20;3.75;;;;;;;1.53;98.15;96217.41;1039119;28;20024;-70
2021/03/25 01:37:45;;;;;;;6.50;4.25;;;;;;;1.51;98.08;96219.41;1039835;28;20055;-69
2021/03/25 01:38:16;;;;;;;5.88;3.86;;;;;;;1.55;98.36;96219.81;1038761;28;20040;-69
2021/03/25 01:38:47;;;;;;;5.56;3.80;;;;;;;1.51;98.47;96210.81;1035413;28;20049;-71
2021/03/25 01:39:18;;;;;;;5.68;3.90;;;;;;;1.43;98.90;96201.44;1034750;28;20026;-70
2021/03/25 01:39:51;;;;;;;6.18;3.88;;;;;;;1.48;98.89;96214.59;1031213;28;20113;-71
2021/03/25 01:40:32;;;;;;;6.70;3.82;;;;;;;1.40;98.88;96201.84;1030259;28;20579;-70
2021/03/25 01:41:03;;;;;;;6.82;3.70;;;;;;;1.48;99.26;96213.81;1032588;28;20528;-70
2021/03/25 01:41:34;;;;;;;6.53;3.92;;;;;;;1.46;98.82;96211.41;1031996;28;20376;-68
2021/03/25 01:42:24;;;;;;;7.78;4.04;;;;;;;1.45;99.04;96212.41;1032311;28;20531;-70
2021/03/25 01:43:23;;;;;;;8.06;4.12;;;;;;;1.41;99.43;96211.19;1030590;28;20015;-69
2021/03/25 01:43:53;;;;;;;6.38;3.62;;;;;;;1.35;99.62;96205.00;1039460;28;20388;-72
2021/03/25 01:44:38;;;;;;;5.82;3.53;;;;;;;1.40;99.61;96207.78;1039726;28;20081;-69
2021/03/25 01:45:30;;;;;;;5.60;3.54;;;;;;;1.44;99.40;96203.03;1043020;28;20013;-68
2021/03/25 01:46:22;;;;;;;6.64;4.12;;;;;;;1.40;99.51;96199.25;1049582;28;20016;-70
2021/03/25 01:46:53;;;;;;;5.70;3.84;;;;;;;1.37;99.64;96191.88;1045672;28;20028;-71
2021/03/25 01:47:23;;;;;;;5.78;3.60;;;;;;;1.38;99.44;96194.28;1042628;28;21023;-70
2021/03/25 01:47:54;;;;;;;7.97;4.07;;;;;;;1.44;99.35;96203.03;1041075;28;20013;-69
2021/03/25 01:48:31;;;;;;;5.28;3.62;;;;;;;1.38;99.43;96196.06;1039251;28;20021;-69
2021/03/25 01:49:10;;;;;;;7.98;3.46;;;;;;;1.40;99.57;96205.22;1034254;28;20021;-70
2021/03/25 01:49:40;;;;;;;5.10;3.56;;;;;;;1.38;100.00;96201.25;1035694;28;20045;-70
2021/03/25 01:50:11;;;;;;;5.38;3.53;;;;;;;1.39;99.86;96208.00;1034663;28;20085;-70
2021/03/25 01:50:41;;;;;;;5.07;3.50;;;;;;;1.38;99.76;96201.25;1036069;28;20025;-71
2021/03/25 01:51:19;;;;;;;5.93;3.70;;;;;;;1.37;100.00;96197.84;1035666;28;20084;-70
2021/03/25 01:52:14;;;;;;;6.18;3.94;;;;;;;1.34;99.94;96200.00;1037761;28;20112;-70
2021/03/25 01:53:22;;;;;;;6.12;3.20;;;;;;;1.37;100.00;96197.84;1032021;28;20015;-71
2021/03/25 01:54:25;;;;;;;5.54;3.36;;;;;;;1.35;100.00;96196.47;1043754;28;20024;-69
2021/03/25 01:55:16;;;;;;;6.24;3.70;;;;;;;1.34;100.00;96200.00;1043924;28;20024;-71
2021/03/25 01:56:03;;;;;;;6.68;3.32;;;;;;;1.29;100.00;96195.44;1040992;28;20009;-68
2021/03/25 01:56:53;;;;;;;4.90;3.53;;;;;;;1.32;100.00;96196.84;1039562;28;20313;-70
2021/03/25 01:57:57;;;;;;;5.70;3.28;;;;;;;1.32;100.00;96191.66;1037774;28;20108;-71
2021/03/25 01:58:42;;;;;;;4.93;3.40;;;;;;;1.23;100.00;96179.91;1039783;28;20107;-69
2021/03/25 01:59:37;;;;;;;5.38;3.53;;;;;;;1.34;100.00;96197.44;1039556;28;20028;-69
2021/03/25 02:00:17;;;;;;;6.90;3.47;;;;;;;1.30;100.00;96196.22;1042935;28;20059;-71
2021/03/25 02:00:59;;;;;;;4.66;3.40;;;;;;;1.22;100.00;96184.28;1039618;28;20039;-70
2021/03/25 02:01:50;;;;;;;7.60;3.38;;;;;;;1.22;100.00;96193.81;1043974;28;20024;-69
2021/03/25 02:02:37;;;;;;;6.78;3.40;;;;;;;1.14;100.00;96174.91;1039990;28;20489;-68
2021/03/25 02:03:27;;;;;;;6.55;3.70;;;;;;;1.19;100.00;96192.41;1035675;28;20029;-70
2021/03/25 02:04:22;;;;;;;5.97;3.33;;;;;;;1.23;100.00;96191.03;1032423;28;20033;-68
2021/03/25 02:05:17;;;;;;;5.08;3.36;;;;;;;1.24;100.00;96189.22;1039846;28;20057;-69
2021/03/25 02:06:12;;;;;;;7.20;3.67;;;;;;;1.26;100.00;96190.66;1038180;28;20021;-70
2021/03/25 02:06:56;;;;;;;5.38;3.60;;;;;;;1.28;100.00;96193.84;1039592;28;20116;-70
2021/03/25 02:08:05;;;;;;;5.45;3.47;;;;;;;1.26;100.00;96189.84;1033855;28;20022;-68
2021/03/25 02:08:56;;;;;;;5.38;3.20;;;;;;;1.23;100.00;96190.22;1027189;28;20106;-69
2021/03/25 02:09:38;;;;;;;6.82;3.10;;;;;;;1.23;100.00;96188.44;1032646;28;20066;-68
2021/03/25 02:10:18;;;;;;;4.57;3.00;;;;;;;1.28;100.00;96187.88;1034617;28;20033;-71
2021/03/25 02:11:30;;;;;;;5.03;3.33;;;;;;;1.33;99.89;96195.84;1031025;28;20081;-70
2021/03/25 02:12:00;;;;;;;;;;;;;;;1.36;99.94;96192.88;1020910;29;20032;-68
2021/03/25 02:12:37;;;;;;;4.57;2.70;;;;;;;1.35;99.27;96191.28;1016679;29;19965;-70
2021/03/25 02:13:13;;;;;;;7.15;3.85;;;;;;;1.38;99.02;96188.31;1022774;28;20027;-69
2021/03/25 02:13:57;;;;;;;4.88;3.03;;;;;;;1.37;99.02;96189.28;1027110;28;20400;-69
2021/03/25 02:14:39;;;;;;;4.60;3.20;;;;;;;1.37;98.95;96186.69;1036111;28;20105;-69
2021/03/25 02:15:18;;;;;;;6.82;3.55;;;;;;;1.41;98.51;96195.69;1035444;28;20756;-70
2021/03/25 02:16:21;;;;;;;6.82;3.60;;;;;;;1.40;98.58;96192.28;1039632;28;20025;-69
2021/03/25 02:17:01;;;;;;;6.07;3.20;;;;;;;1.44;98.38;96184.94;1042550;28;20112;-69
2021/03/25 02:17:42;;;;;;;6.40;4.03;;;;;;;1.44;98.02;96189.31;1035580;28;20161;-70
2021/03/25 02:18:27;;;;;;;5.03;3.28;;;;;;;1.46;97.85;96188.13;1035217;28;20107;-69
2021/03/25 02:19:07;;;;;;;7.72;4.43;;;;;;;1.40;98.05;96192.28;1039754;28;20030;-70
2021/03/25 02:20:01;;;;;;;4.57;3.10;;;;;;;1.43;98.01;96193.69;1038367;28;20038;-69
2021/03/25 02:20:56;;;;;;;5.78;3.33;;;;;;;1.45;97.82;96189.13;1043592;28;20051;-69
2021/03/25 02:21:40;;;;;;;4.95;3.38;;;;;;;1.44;97.81;96186.72;1041720;28;20564;-71
2021/03/25 02:22:32;;;;;;;7.42;3.22;;;;;;;1.49;97.81;96192.91;1038844;28;20447;-69
2021/03/25 02:23:02;;;;;;;6.88;3.75;;;;;;;1.52;97.29;96184.78;1040606;28;20095;-70
2021/03/25 02:23:57;;;;;;;5.28;2.53;;;;;;;1.50;97.38;96180.78;1047378;28;20119;-68
2021/03/25 02:24:56;;;;;;;4.10;2.63;;;;;;;1.49;97.36;96180.00;1047752;28;20020;-69
2021/03/25 02:25:28;;;;;;;6.38;4.15;;;;;;;1.51;97.26;96187.53;1046624;28;20091;-70
2021/03/25 02:26:07;;;;;;;5.55;3.53;;;;;;;1.53;97.02;96181.19;1043726;28;20068;-69
2021/03/25 02:27:03;;;;;;;5.30;3.40;;;;;;;1.52;96.67;96174.44;1035336;28;20048;-70
2021/03/25 02:27:37;;;;;;;3.86;2.82;;;;;;;1.56;96.60;96177.44;1028445;28;20129;-69
2021/03/25 02:28:22;;;;;;;4.44;3.08;;;;;;;1.56;96.30;96170.47;1037298;28;20022;-68
2021/03/25 02:29:34;;;;;;;7.30;3.42;;;;;;;1.52;96.15;96179.59;1040084;28;20025;-69
2021/03/25 02:30:17;;;;;;;4.90;3.13;;;;;;;1.55;95.88;96173.25;1033467;28;20594;-68
2021/03/25 02:31:00;;;;;;;5.22;3.10;;;;;;;1.54;96.05;96176.81;1027035;28;20037;-70
2021/03/25 02:31:35;;;;;;;5.56;3.82;;;;;;;1.50;95.99;96176.41;1026691;28;20479;-70
2021/03/25 02:32:09;;;;;;;6.86;3.34;;;;;;;1.46;96.40;96166.66;1022734;29;20031;-69
2021/03/25 02:32:52;;;;;;;5.00;3.28;;;;;;;1.50;95.98;96184.16;1022823;29;20114;-69
2021/03/25 02:33:23;;;;;;;5.32;3.14;;;;;;;1.41;96.21;96164.66;1021339;28;20465;-68
2021/03/25 02:33:55;;;;;;;4.55;3.00;;;;;;;1.48;96.27;96177.63;1022887;29;20039;-69
2021/03/25 02:34:29;;;;;;;6.42;3.16;;;;;;;1.46;96.10;96180.38;1027193;28;20396;-69
2021/03/25 02:35:15;;;;;;;5.95;3.15;;;;;;;1.49;96.07;96179.19;1028555;28;20034;-68
2021/03/25 02:35:52;;;;;;;5.38;3.28;;;;;;;1.48;96.12;96178.41;1023791;28;20448;-67
2021/03/25 02:36:29;;;;;;;5.18;3.17;;;;;;;1.47;96.03;96181.16;1037561;28;20021;-68
2021/03/25 02:37:11;;;;;;;6.22;3.18;;;;;;;1.50;95.68;96179.00;1037538;28;20017;-69
2021/03/25 02:37:42;;;;;;;4.60;3.35;;;;;;;1.53;95.45;96181.19;1028146;28;20465;-70
2021/03/25 02:38:15;;;;;;;4.85;3.25;;;;;;;1.05;95.67;96106.28;1024860;28;20042;-70
2021/03/25 02:38:52;;;;;;;7.62;3.10;;;;;;;1.53;95.66;96178.59;1036709;28;20040;-69
2021/03/25 02:39:30;;;;;;;5.08;3.16;;;;;;;1.44;95.37;96166.84;1039459;28;20025;-69
2021/03/25 02:40:21;;;;;;;6.08;2.84;;;;;;;1.61;94.78;96178.44;1029340;28;20508;-70
2021/03/25 02:40:54;;;;;;;5.36;2.74;;;;;;;1.65;94.45;96184.03;1038102;28;20026;-69
2021/03/25 02:41:27;;;;;;;6.18;3.08;;;;;;;1.61;94.46;96187.97;1037936;28;20029;-71
2021/03/25 02:41:58;;;;;;;4.96;3.14;;;;;;;1.58;94.21;96176.25;1035012;28;20032;-69
2021/03/25 02:42:37;;;;;;;3.63;2.95;;;;;;;1.68;93.85;96182.81;1030937;28;20033;-68
2021/03/25 02:43:10;;;;;;;6.80;3.04;;;;;;;1.66;93.67;96180.44;1035179;28;20026;-69
2021/03/25 02:43:44;;;;;;;4.85;3.20;;;;;;;1.65;93.79;96184.81;1030693;28;20105;-69
2021/03/25 02:44:55;;;;;;;5.82;2.90;;;;;;;1.66;93.94;96175.25;1029976;28;20419;-69
2021/03/25 02:45:28;;;;;;;4.90;2.92;;;;;;;1.62;94.26;96182.63;1025595;28;20157;-70
2021/03/25 02:46:22;;;;;;;5.98;2.96;;;;;;;1.60;94.15;96181.22;1023893;28;20043;-70
2021/03/25 02:47:03;;;;;;;4.52;2.80;;;;;;;1.48;94.36;96168.06;1024340;28;20493;-71
2021/03/25 02:47:36;;;;;;;5.18;3.00;;;;;;;1.58;94.59;96178.84;1024233;28;20384;-68
2021/03/25 02:48:12;;;;;;;4.58;3.12;;;;;;;1.58;94.52;96181.41;1029529;28;20031;-70
2021/03/25 02:48:43;;;;;;;7.08;3.18;;;;;;;1.57;94.31;96174.63;1035020;28;20025;-70